sensor_id;sensor_type;location;lat;lon;timestamp;temperature;humidity
45843;DHT22;31563;51.744;8.252;2024-02-15T00:00:19;17.90;73.10
45843;DHT22;31563;51.744;8.252;2024-02-15T00:02:47;18.00;73.20
45843;DHT22;31563;51.744;8.252;2024-02-15T00:05:15;17.90;73.20
45843;DHT22;31563;51.744;8.252;2024-02-15T00:07:43;17.90;73.20
45843;DHT22;31563;51.744;8.252;2024-02-15T00:10:15;17.90;73.10
45843;DHT22;31563;51.744;8.252;2024-02-15T00:12:43;18.00;73.10
45843;DHT22;31563;51.744;8.252;2024-02-15T00:15:11;18.00;73.10
45843;DHT22;31563;51.744;8.252;2024-02-15T00:17:40;18.00;73.00
45843;DHT22;31563;51.744;8.252;2024-02-15T00:20:09;18.00;73.10
45843;DHT22;31563;51.744;8.252;2024-02-15T00:22:37;17.90;73.10
45843;DHT22;31563;51.744;8.252;2024-02-15T00:25:07;17.90;73.20
45843;DHT22;31563;51.744;8.252;2024-02-15T00:27:37;17.90;73.20
45843;DHT22;31563;51.744;8.252;2024-02-15T00:30:06;17.90;73.20
45843;DHT22;31563;51.744;8.252;2024-02-15T00:32:35;17.90;73.20
45843;DHT22;31563;51.744;8.252;2024-02-15T00:35:05;17.90;73.30
45843;DHT22;31563;51.744;8.252;2024-02-15T00:37:37;17.90;73.30
45843;DHT22;31563;51.744;8.252;2024-02-15T00:40:06;17.80;73.40
45843;DHT22;31563;51.744;8.252;2024-02-15T00:42:35;17.80;73.50
45843;DHT22;31563;51.744;8.252;2024-02-15T00:45:04;17.80;73.60
45843;DHT22;31563;51.744;8.252;2024-02-15T00:47:32;17.80;73.60
45843;DHT22;31563;51.744;8.252;2024-02-15T00:50:00;17.80;73.60
45843;DHT22;31563;51.744;8.252;2024-02-15T00:52:31;17.80;73.60
45843;DHT22;31563;51.744;8.252;2024-02-15T00:54:59;17.80;73.60
45843;DHT22;31563;51.744;8.252;2024-02-15T00:57:27;17.80;73.40
45843;DHT22;31563;51.744;8.252;2024-02-15T00:59:55;17.80;73.50
45843;DHT22;31563;51.744;8.252;2024-02-15T01:02:23;17.80;73.40
45843;DHT22;31563;51.744;8.252;2024-02-15T01:04:52;17.80;73.40
45843;DHT22;31563;51.744;8.252;2024-02-15T01:07:22;17.80;73.40
45843;DHT22;31563;51.744;8.252;2024-02-15T01:09:55;17.80;73.50
45843;DHT22;31563;51.744;8.252;2024-02-15T01:12:23;17.80;73.50
45843;DHT22;31563;51.744;8.252;2024-02-15T01:14:51;17.90;74.10
45843;DHT22;31563;51.744;8.252;2024-02-15T01:17:19;17.80;73.30
45843;DHT22;31563;51.744;8.252;2024-02-15T01:19:47;17.80;73.30
45843;DHT22;31563;51.744;8.252;2024-02-15T01:22:16;17.90;73.30
45843;DHT22;31563;51.744;8.252;2024-02-15T01:24:45;17.90;73.30
45843;DHT22;31563;51.744;8.252;2024-02-15T01:27:14;17.90;73.30
45843;DHT22;31563;51.744;8.252;2024-02-15T01:29:43;17.80;73.30
45843;DHT22;31563;51.744;8.252;2024-02-15T01:32:12;17.80;73.30
45843;DHT22;31563;51.744;8.252;2024-02-15T01:34:40;17.80;73.40
45843;DHT22;31563;51.744;8.252;2024-02-15T01:37:09;17.80;73.40
45843;DHT22;31563;51.744;8.252;2024-02-15T01:39:37;17.80;73.50
45843;DHT22;31563;51.744;8.252;2024-02-15T01:42:04;17.80;73.60
45843;DHT22;31563;51.744;8.252;2024-02-15T01:44:34;17.70;73.60
45843;DHT22;31563;51.744;8.252;2024-02-15T01:47:03;17.70;73.60
45843;DHT22;31563;51.744;8.252;2024-02-15T01:49:31;17.70;73.60
45843;DHT22;31563;51.744;8.252;2024-02-15T01:52:01;17.70;73.70
45843;DHT22;31563;51.744;8.252;2024-02-15T01:54:30;17.70;73.80
45843;DHT22;31563;51.744;8.252;2024-02-15T01:56:58;17.70;73.80
45843;DHT22;31563;51.744;8.252;2024-02-15T01:59:26;17.70;73.80
45843;DHT22;31563;51.744;8.252;2024-02-15T02:01:56;17.70;73.80
45843;DHT22;31563;51.744;8.252;2024-02-15T02:04:24;17.70;73.70
45843;DHT22;31563;51.744;8.252;2024-02-15T02:06:52;17.70;73.70
45843;DHT22;31563;51.744;8.252;2024-02-15T02:09:23;17.70;73.60
45843;DHT22;31563;51.744;8.252;2024-02-15T02:11:51;17.70;73.70
45843;DHT22;31563;51.744;8.252;2024-02-15T02:14:20;17.70;73.70
45843;DHT22;31563;51.744;8.252;2024-02-15T02:16:48;17.70;73.80
45843;DHT22;31563;51.744;8.252;2024-02-15T02:19:17;17.70;73.70
45843;DHT22;31563;51.744;8.252;2024-02-15T02:21:45;17.70;73.80
45843;DHT22;31563;51.744;8.252;2024-02-15T02:24:22;17.70;73.60
45843;DHT22;31563;51.744;8.252;2024-02-15T02:26:52;17.80;74.20
45843;DHT22;31563;51.744;8.252;2024-02-15T02:29:21;17.70;73.60
45843;DHT22;31563;51.744;8.252;2024-02-15T02:31:49;17.70;73.60
45843;DHT22;31563;51.744;8.252;2024-02-15T02:34:17;17.70;73.60
45843;DHT22;31563;51.744;8.252;2024-02-15T02:36:46;17.70;73.70
45843;DHT22;31563;51.744;8.252;2024-02-15T02:39:14;17.70;73.80
45843;DHT22;31563;51.744;8.252;2024-02-15T02:41:43;17.70;73.80
45843;DHT22;31563;51.744;8.252;2024-02-15T02:44:12;17.70;73.80
45843;DHT22;31563;51.744;8.252;2024-02-15T02:46:42;17.70;73.80
45843;DHT22;31563;51.744;8.252;2024-02-15T02:49:11;17.70;74.00
45843;DHT22;31563;51.744;8.252;2024-02-15T02:51:39;17.60;73.90
45843;DHT22;31563;51.744;8.252;2024-02-15T02:54:07;17.60;74.00
45843;DHT22;31563;51.744;8.252;2024-02-15T02:56:35;17.60;74.10
45843;DHT22;31563;51.744;8.252;2024-02-15T02:59:04;17.60;74.20
45843;DHT22;31563;51.744;8.252;2024-02-15T03:01:35;17.60;74.20
45843;DHT22;31563;51.744;8.252;2024-02-15T03:04:04;17.60;74.20
45843;DHT22;31563;51.744;8.252;2024-02-15T03:06:31;17.60;74.10
45843;DHT22;31563;51.744;8.252;2024-02-15T03:09:01;17.60;74.10
45843;DHT22;31563;51.744;8.252;2024-02-15T03:11:33;17.60;74.10
45843;DHT22;31563;51.744;8.252;2024-02-15T03:14:02;17.60;74.10
45843;DHT22;31563;51.744;8.252;2024-02-15T03:16:31;17.60;74.10
45843;DHT22;31563;51.744;8.252;2024-02-15T03:19:00;17.60;74.20
45843;DHT22;31563;51.744;8.252;2024-02-15T03:21:30;17.60;74.10
45843;DHT22;31563;51.744;8.252;2024-02-15T03:23:58;17.60;74.00
45843;DHT22;31563;51.744;8.252;2024-02-15T03:26:30;17.60;74.00
45843;DHT22;31563;51.744;8.252;2024-02-15T03:29:05;17.70;74.00
45843;DHT22;31563;51.744;8.252;2024-02-15T03:31:35;17.70;73.90
45843;DHT22;31563;51.744;8.252;2024-02-15T03:34:05;17.70;73.90
45843;DHT22;31563;51.744;8.252;2024-02-15T03:36:33;17.70;74.00
45843;DHT22;31563;51.744;8.252;2024-02-15T03:39:02;17.60;74.00
45843;DHT22;31563;51.744;8.252;2024-02-15T03:41:33;17.60;74.00
45843;DHT22;31563;51.744;8.252;2024-02-15T03:44:01;17.60;74.10
45843;DHT22;31563;51.744;8.252;2024-02-15T03:46:29;17.60;74.10
45843;DHT22;31563;51.744;8.252;2024-02-15T03:48:58;17.60;74.20
45843;DHT22;31563;51.744;8.252;2024-02-15T03:51:27;17.60;74.20
45843;DHT22;31563;51.744;8.252;2024-02-15T03:53:55;17.50;74.20
45843;DHT22;31563;51.744;8.252;2024-02-15T03:56:24;17.60;74.40
45843;DHT22;31563;51.744;8.252;2024-02-15T03:58:52;17.50;74.40
45843;DHT22;31563;51.744;8.252;2024-02-15T04:01:20;17.50;74.40
45843;DHT22;31563;51.744;8.252;2024-02-15T04:03:48;17.50;74.30
45843;DHT22;31563;51.744;8.252;2024-02-15T04:06:16;17.50;74.40
45843;DHT22;31563;51.744;8.252;2024-02-15T04:08:46;17.50;74.40
45843;DHT22;31563;51.744;8.252;2024-02-15T04:11:16;17.50;74.40
45843;DHT22;31563;51.744;8.252;2024-02-15T04:13:46;17.60;74.30
45843;DHT22;31563;51.744;8.252;2024-02-15T04:16:14;17.60;74.30
45843;DHT22;31563;51.744;8.252;2024-02-15T04:18:43;17.60;74.20
45843;DHT22;31563;51.744;8.252;2024-02-15T04:21:12;17.60;74.30
45843;DHT22;31563;51.744;8.252;2024-02-15T04:23:40;17.50;74.80
45843;DHT22;31563;51.744;8.252;2024-02-15T04:26:10;17.50;74.20
45843;DHT22;31563;51.744;8.252;2024-02-15T04:28:39;17.50;74.30
45843;DHT22;31563;51.744;8.252;2024-02-15T04:31:08;17.50;74.20
45843;DHT22;31563;51.744;8.252;2024-02-15T04:33:36;17.60;74.20
45843;DHT22;31563;51.744;8.252;2024-02-15T04:36:04;17.60;74.10
45843;DHT22;31563;51.744;8.252;2024-02-15T04:38:33;17.60;74.10
45843;DHT22;31563;51.744;8.252;2024-02-15T04:41:01;17.60;74.10
45843;DHT22;31563;51.744;8.252;2024-02-15T04:43:32;17.60;74.20
45843;DHT22;31563;51.744;8.252;2024-02-15T04:46:00;17.50;74.20
45843;DHT22;31563;51.744;8.252;2024-02-15T04:48:29;17.50;74.20
45843;DHT22;31563;51.744;8.252;2024-02-15T04:50:57;17.50;74.10
45843;DHT22;31563;51.744;8.252;2024-02-15T04:53:26;17.70;74.00
45843;DHT22;31563;51.744;8.252;2024-02-15T04:55:57;17.70;73.70
45843;DHT22;31563;51.744;8.252;2024-02-15T04:58:27;17.80;73.60
45843;DHT22;31563;51.744;8.252;2024-02-15T05:00:57;17.80;73.40
45843;DHT22;31563;51.744;8.252;2024-02-15T05:03:26;17.90;73.30
45843;DHT22;31563;51.744;8.252;2024-02-15T05:05:55;17.90;73.20
45843;DHT22;31563;51.744;8.252;2024-02-15T05:08:23;18.00;73.20
45843;DHT22;31563;51.744;8.252;2024-02-15T05:10:53;18.00;73.60
45843;DHT22;31563;51.744;8.252;2024-02-15T05:13:24;18.20;74.00
45843;DHT22;31563;51.744;8.252;2024-02-15T05:15:53;18.20;74.20
45843;DHT22;31563;51.744;8.252;2024-02-15T05:18:23;18.20;75.30
45843;DHT22;31563;51.744;8.252;2024-02-15T05:20:52;18.20;75.00
45843;DHT22;31563;51.744;8.252;2024-02-15T05:23:21;18.30;74.80
45843;DHT22;31563;51.744;8.252;2024-02-15T05:25:49;18.20;76.00
45843;DHT22;31563;51.744;8.252;2024-02-15T05:28:17;18.20;76.30
45843;DHT22;31563;51.744;8.252;2024-02-15T05:30:47;18.20;74.80
45843;DHT22;31563;51.744;8.252;2024-02-15T05:33:17;18.20;74.70
45843;DHT22;31563;51.744;8.252;2024-02-15T05:35:47;18.20;75.60
45843;DHT22;31563;51.744;8.252;2024-02-15T05:38:17;18.10;75.60
45843;DHT22;31563;51.744;8.252;2024-02-15T05:40:45;18.20;75.20
45843;DHT22;31563;51.744;8.252;2024-02-15T05:43:15;18.10;75.30
45843;DHT22;31563;51.744;8.252;2024-02-15T05:45:43;18.20;77.00
45843;DHT22;31563;51.744;8.252;2024-02-15T05:48:12;18.20;76.10
45843;DHT22;31563;51.744;8.252;2024-02-15T05:50:40;18.10;75.80
45843;DHT22;31563;51.744;8.252;2024-02-15T05:53:10;18.10;76.80
45843;DHT22;31563;51.744;8.252;2024-02-15T05:55:38;18.10;76.60
45843;DHT22;31563;51.744;8.252;2024-02-15T05:58:11;18.10;75.80
45843;DHT22;31563;51.744;8.252;2024-02-15T06:00:40;18.10;76.70
45843;DHT22;31563;51.744;8.252;2024-02-15T06:03:09;18.10;76.60
45843;DHT22;31563;51.744;8.252;2024-02-15T06:05:37;18.10;75.90
45843;DHT22;31563;51.744;8.252;2024-02-15T06:08:06;18.10;74.90
45843;DHT22;31563;51.744;8.252;2024-02-15T06:10:36;18.00;75.50
45843;DHT22;31563;51.744;8.252;2024-02-15T06:13:04;18.00;75.60
45843;DHT22;31563;51.744;8.252;2024-02-15T06:15:32;18.00;75.70
45843;DHT22;31563;51.744;8.252;2024-02-15T06:18:01;18.00;75.70
45843;DHT22;31563;51.744;8.252;2024-02-15T06:20:30;18.00;75.40
45843;DHT22;31563;51.744;8.252;2024-02-15T06:22:58;18.00;75.10
45843;DHT22;31563;51.744;8.252;2024-02-15T06:25:26;18.10;75.30
45843;DHT22;31563;51.744;8.252;2024-02-15T06:27:57;18.10;75.40
45843;DHT22;31563;51.744;8.252;2024-02-15T06:30:29;18.10;75.70
45843;DHT22;31563;51.744;8.252;2024-02-15T06:33:23;18.00;75.50
45843;DHT22;31563;51.744;8.252;2024-02-15T06:36:06;18.10;75.20
45843;DHT22;31563;51.744;8.252;2024-02-15T06:38:51;18.00;74.30
45843;DHT22;31563;51.744;8.252;2024-02-15T06:41:37;18.10;74.00
45843;DHT22;31563;51.744;8.252;2024-02-15T06:44:07;18.10;74.00
45843;DHT22;31563;51.744;8.252;2024-02-15T06:46:36;18.20;73.90
45843;DHT22;31563;51.744;8.252;2024-02-15T06:49:04;18.20;73.80
45843;DHT22;31563;51.744;8.252;2024-02-15T06:51:33;18.20;73.70
45843;DHT22;31563;51.744;8.252;2024-02-15T06:54:01;18.20;73.80
45843;DHT22;31563;51.744;8.252;2024-02-15T06:56:29;18.30;73.80
45843;DHT22;31563;51.744;8.252;2024-02-15T06:58:58;18.30;73.70
45843;DHT22;31563;51.744;8.252;2024-02-15T07:01:28;18.30;73.70
45843;DHT22;31563;51.744;8.252;2024-02-15T07:03:56;18.30;73.70
45843;DHT22;31563;51.744;8.252;2024-02-15T07:06:25;18.30;73.70
45843;DHT22;31563;51.744;8.252;2024-02-15T07:08:55;18.30;75.00
45843;DHT22;31563;51.744;8.252;2024-02-15T07:11:24;18.40;74.50
45843;DHT22;31563;51.744;8.252;2024-02-15T07:13:52;18.60;74.40
45843;DHT22;31563;51.744;8.252;2024-02-15T07:16:22;18.60;74.20
45843;DHT22;31563;51.744;8.252;2024-02-15T07:18:51;18.70;74.20
45843;DHT22;31563;51.744;8.252;2024-02-15T07:21:20;18.70;74.00
45843;DHT22;31563;51.744;8.252;2024-02-15T07:23:53;18.60;73.80
45843;DHT22;31563;51.744;8.252;2024-02-15T07:26:21;18.50;72.80
45843;DHT22;31563;51.744;8.252;2024-02-15T07:28:51;18.30;72.90
45843;DHT22;31563;51.744;8.252;2024-02-15T07:31:20;18.30;72.60
45843;DHT22;31563;51.744;8.252;2024-02-15T07:33:51;18.30;72.80
45843;DHT22;31563;51.744;8.252;2024-02-15T07:36:20;18.30;72.80
45843;DHT22;31563;51.744;8.252;2024-02-15T07:38:49;18.30;73.50
45843;DHT22;31563;51.744;8.252;2024-02-15T07:41:18;18.30;72.80
45843;DHT22;31563;51.744;8.252;2024-02-15T07:43:49;18.40;72.80
45843;DHT22;31563;51.744;8.252;2024-02-15T07:46:18;18.40;72.60
45843;DHT22;31563;51.744;8.252;2024-02-15T07:48:46;18.50;72.50
45843;DHT22;31563;51.744;8.252;2024-02-15T07:51:17;18.50;72.40
45843;DHT22;31563;51.744;8.252;2024-02-15T07:53:47;18.50;72.40
45843;DHT22;31563;51.744;8.252;2024-02-15T07:56:16;18.50;72.40
45843;DHT22;31563;51.744;8.252;2024-02-15T07:58:47;18.50;72.40
45843;DHT22;31563;51.744;8.252;2024-02-15T08:01:20;18.60;72.50
45843;DHT22;31563;51.744;8.252;2024-02-15T08:03:51;18.60;72.50
45843;DHT22;31563;51.744;8.252;2024-02-15T08:06:23;18.70;72.50
45843;DHT22;31563;51.744;8.252;2024-02-15T08:08:55;18.70;72.50
45843;DHT22;31563;51.744;8.252;2024-02-15T08:11:23;18.60;73.10
45843;DHT22;31563;51.744;8.252;2024-02-15T08:13:54;18.60;73.30
45843;DHT22;31563;51.744;8.252;2024-02-15T08:16:26;18.50;72.60
45843;DHT22;31563;51.744;8.252;2024-02-15T08:18:55;18.50;73.30
45843;DHT22;31563;51.744;8.252;2024-02-15T08:21:29;18.50;73.20
45843;DHT22;31563;51.744;8.252;2024-02-15T08:24:00;18.50;73.30
45843;DHT22;31563;51.744;8.252;2024-02-15T08:26:32;18.50;73.30
45843;DHT22;31563;51.744;8.252;2024-02-15T08:29:02;18.50;73.30
45843;DHT22;31563;51.744;8.252;2024-02-15T08:31:31;18.50;73.30
45843;DHT22;31563;51.744;8.252;2024-02-15T08:34:01;18.60;73.50
45843;DHT22;31563;51.744;8.252;2024-02-15T08:36:31;18.60;73.50
45843;DHT22;31563;51.744;8.252;2024-02-15T08:38:59;18.60;73.40
45843;DHT22;31563;51.744;8.252;2024-02-15T08:41:28;18.60;73.30
45843;DHT22;31563;51.744;8.252;2024-02-15T08:43:56;18.70;73.30
45843;DHT22;31563;51.744;8.252;2024-02-15T08:46:25;18.70;73.10
45843;DHT22;31563;51.744;8.252;2024-02-15T08:48:54;18.70;73.10
45843;DHT22;31563;51.744;8.252;2024-02-15T08:51:22;18.70;73.20
45843;DHT22;31563;51.744;8.252;2024-02-15T08:53:52;18.60;73.20
45843;DHT22;31563;51.744;8.252;2024-02-15T08:56:21;18.70;73.30
45843;DHT22;31563;51.744;8.252;2024-02-15T08:58:49;18.70;73.30
45843;DHT22;31563;51.744;8.252;2024-02-15T09:01:18;18.70;73.20
45843;DHT22;31563;51.744;8.252;2024-02-15T09:03:46;18.80;73.10
45843;DHT22;31563;51.744;8.252;2024-02-15T09:06:18;18.80;74.10
45843;DHT22;31563;51.744;8.252;2024-02-15T09:08:50;18.80;73.50
45843;DHT22;31563;51.744;8.252;2024-02-15T09:11:20;18.80;74.60
45843;DHT22;31563;51.744;8.252;2024-02-15T09:13:50;18.80;74.10
45843;DHT22;31563;51.744;8.252;2024-02-15T09:16:18;18.90;73.90
45843;DHT22;31563;51.744;8.252;2024-02-15T09:18:48;18.90;74.50
45843;DHT22;31563;51.744;8.252;2024-02-15T09:21:18;19.00;73.60
45843;DHT22;31563;51.744;8.252;2024-02-15T09:23:46;19.10;73.50
45843;DHT22;31563;51.744;8.252;2024-02-15T09:26:15;19.10;73.20
45843;DHT22;31563;51.744;8.252;2024-02-15T09:28:45;19.30;72.80
45843;DHT22;31563;51.744;8.252;2024-02-15T09:31:13;19.40;72.60
45843;DHT22;31563;51.744;8.252;2024-02-15T09:33:41;19.40;72.20
45843;DHT22;31563;51.744;8.252;2024-02-15T09:36:09;19.50;71.90
45843;DHT22;31563;51.744;8.252;2024-02-15T09:38:39;19.50;72.10
45843;DHT22;31563;51.744;8.252;2024-02-15T09:41:07;19.40;72.50
45843;DHT22;31563;51.744;8.252;2024-02-15T09:43:36;19.50;72.70
45843;DHT22;31563;51.744;8.252;2024-02-15T09:46:05;19.40;72.20
45843;DHT22;31563;51.744;8.252;2024-02-15T09:48:34;19.40;72.20
45843;DHT22;31563;51.744;8.252;2024-02-15T09:51:04;19.30;72.20
45843;DHT22;31563;51.744;8.252;2024-02-15T09:53:32;19.20;72.50
45843;DHT22;31563;51.744;8.252;2024-02-15T09:56:01;19.20;73.10
45843;DHT22;31563;51.744;8.252;2024-02-15T09:58:33;19.40;72.40
45843;DHT22;31563;51.744;8.252;2024-02-15T10:01:05;19.50;71.80
45843;DHT22;31563;51.744;8.252;2024-02-15T10:03:37;19.50;71.70
45843;DHT22;31563;51.744;8.252;2024-02-15T10:06:07;19.50;71.70
45843;DHT22;31563;51.744;8.252;2024-02-15T10:08:37;19.40;71.80
45843;DHT22;31563;51.744;8.252;2024-02-15T10:11:06;19.30;71.80
45843;DHT22;31563;51.744;8.252;2024-02-15T10:13:36;19.40;71.90
45843;DHT22;31563;51.744;8.252;2024-02-15T10:16:15;19.40;72.00
45843;DHT22;31563;51.744;8.252;2024-02-15T10:18:45;19.40;72.10
45843;DHT22;31563;51.744;8.252;2024-02-15T10:21:26;19.30;72.30
45843;DHT22;31563;51.744;8.252;2024-02-15T10:24:06;19.30;72.50
45843;DHT22;31563;51.744;8.252;2024-02-15T10:26:35;19.30;72.80
45843;DHT22;31563;51.744;8.252;2024-02-15T10:29:07;19.20;73.00
45843;DHT22;31563;51.744;8.252;2024-02-15T10:31:39;19.20;73.20
45843;DHT22;31563;51.744;8.252;2024-02-15T10:34:09;19.20;73.30
45843;DHT22;31563;51.744;8.252;2024-02-15T10:36:38;19.20;73.40
45843;DHT22;31563;51.744;8.252;2024-02-15T10:39:13;19.20;73.50
45843;DHT22;31563;51.744;8.252;2024-02-15T10:41:49;19.20;73.60
45843;DHT22;31563;51.744;8.252;2024-02-15T10:44:18;19.30;73.90
45843;DHT22;31563;51.744;8.252;2024-02-15T10:46:48;19.20;74.50
45843;DHT22;31563;51.744;8.252;2024-02-15T10:49:22;19.30;73.90
45843;DHT22;31563;51.744;8.252;2024-02-15T10:51:52;19.30;73.80
45843;DHT22;31563;51.744;8.252;2024-02-15T10:54:41;19.30;73.60
45843;DHT22;31563;51.744;8.252;2024-02-15T10:57:11;19.40;73.60
45843;DHT22;31563;51.744;8.252;2024-02-15T10:59:51;19.40;73.60
45843;DHT22;31563;51.744;8.252;2024-02-15T11:02:28;19.40;74.20
45843;DHT22;31563;51.744;8.252;2024-02-15T11:05:03;19.40;73.80
45843;DHT22;31563;51.744;8.252;2024-02-15T11:07:36;19.50;73.70
45843;DHT22;31563;51.744;8.252;2024-02-15T11:10:06;19.50;73.80
45843;DHT22;31563;51.744;8.252;2024-02-15T11:12:38;19.50;73.70
45843;DHT22;31563;51.744;8.252;2024-02-15T11:15:09;19.60;73.00
45843;DHT22;31563;51.744;8.252;2024-02-15T11:17:49;19.70;72.30
45843;DHT22;31563;51.744;8.252;2024-02-15T11:20:49;19.80;71.90
45843;DHT22;31563;51.744;8.252;2024-02-15T11:23:29;19.90;71.40
45843;DHT22;31563;51.744;8.252;2024-02-15T11:26:04;20.00;71.10
45843;DHT22;31563;51.744;8.252;2024-02-15T11:28:39;20.10;71.00
45843;DHT22;31563;51.744;8.252;2024-02-15T11:31:10;20.10;70.90
45843;DHT22;31563;51.744;8.252;2024-02-15T11:37:05;20.00;71.10
45843;DHT22;31563;51.744;8.252;2024-02-15T11:39:39;19.90;71.40
45843;DHT22;31563;51.744;8.252;2024-02-15T11:42:27;19.80;71.60
45843;DHT22;31563;51.744;8.252;2024-02-15T11:45:03;19.70;71.90
45843;DHT22;31563;51.744;8.252;2024-02-15T11:47:33;19.70;72.10
45843;DHT22;31563;51.744;8.252;2024-02-15T11:50:05;19.80;72.20
45843;DHT22;31563;51.744;8.252;2024-02-15T11:52:41;19.70;72.40
45843;DHT22;31563;51.744;8.252;2024-02-15T11:55:10;19.70;72.40
45843;DHT22;31563;51.744;8.252;2024-02-15T11:57:40;19.80;72.20
45843;DHT22;31563;51.744;8.252;2024-02-15T12:00:22;19.90;72.30
45843;DHT22;31563;51.744;8.252;2024-02-15T12:03:09;19.90;72.40
45843;DHT22;31563;51.744;8.252;2024-02-15T12:05:55;19.90;72.60
45843;DHT22;31563;51.744;8.252;2024-02-15T12:08:53;19.90;72.40
45843;DHT22;31563;51.744;8.252;2024-02-15T12:11:39;19.90;72.30
45843;DHT22;31563;51.744;8.252;2024-02-15T12:14:25;20.10;71.90
45843;DHT22;31563;51.744;8.252;2024-02-15T12:17:11;20.10;71.60
45843;DHT22;31563;51.744;8.252;2024-02-15T12:20:00;20.20;71.30
45843;DHT22;31563;51.744;8.252;2024-02-15T12:22:36;20.20;71.30
45843;DHT22;31563;51.744;8.252;2024-02-15T12:25:14;20.10;71.40
45843;DHT22;31563;51.744;8.252;2024-02-15T12:27:43;20.10;71.60
45843;DHT22;31563;51.744;8.252;2024-02-15T12:30:14;20.00;71.70
45843;DHT22;31563;51.744;8.252;2024-02-15T12:32:47;20.00;72.00
45843;DHT22;31563;51.744;8.252;2024-02-15T12:35:18;20.00;72.00
45843;DHT22;31563;51.744;8.252;2024-02-15T12:37:47;20.10;71.90
45843;DHT22;31563;51.744;8.252;2024-02-15T12:40:19;20.10;71.70
45843;DHT22;31563;51.744;8.252;2024-02-15T12:42:48;20.20;71.60
45843;DHT22;31563;51.744;8.252;2024-02-15T12:45:17;20.30;71.50
45843;DHT22;31563;51.744;8.252;2024-02-15T12:47:50;20.30;71.40
45843;DHT22;31563;51.744;8.252;2024-02-15T12:50:19;20.30;71.30
45843;DHT22;31563;51.744;8.252;2024-02-15T12:52:49;20.30;71.20
45843;DHT22;31563;51.744;8.252;2024-02-15T12:55:20;20.30;71.10
45843;DHT22;31563;51.744;8.252;2024-02-15T12:57:50;20.40;71.10
45843;DHT22;31563;51.744;8.252;2024-02-15T13:00:19;20.40;71.00
45843;DHT22;31563;51.744;8.252;2024-02-15T13:02:49;20.40;70.90
45843;DHT22;31563;51.744;8.252;2024-02-15T13:05:18;20.50;70.90
45843;DHT22;31563;51.744;8.252;2024-02-15T13:07:47;20.60;70.70
45843;DHT22;31563;51.744;8.252;2024-02-15T13:10:16;20.60;70.50
45843;DHT22;31563;51.744;8.252;2024-02-15T13:12:45;20.70;70.40
45843;DHT22;31563;51.744;8.252;2024-02-15T13:15:14;20.70;70.30
45843;DHT22;31563;51.744;8.252;2024-02-15T13:17:45;20.70;70.20
45843;DHT22;31563;51.744;8.252;2024-02-15T13:20:13;20.80;70.10
45843;DHT22;31563;51.744;8.252;2024-02-15T13:22:42;20.90;69.80
45843;DHT22;31563;51.744;8.252;2024-02-15T13:25:11;20.90;69.40
45843;DHT22;31563;51.744;8.252;2024-02-15T13:27:40;21.00;69.50
45843;DHT22;31563;51.744;8.252;2024-02-15T13:30:11;20.90;69.30
45843;DHT22;31563;51.744;8.252;2024-02-15T13:32:40;20.90;69.60
45843;DHT22;31563;51.744;8.252;2024-02-15T13:35:10;20.90;69.90
45843;DHT22;31563;51.744;8.252;2024-02-15T13:37:41;20.90;69.80
45843;DHT22;31563;51.744;8.252;2024-02-15T13:40:11;20.90;69.60
45843;DHT22;31563;51.744;8.252;2024-02-15T13:42:44;21.00;69.50
45843;DHT22;31563;51.744;8.252;2024-02-15T13:45:18;21.20;69.10
45843;DHT22;31563;51.744;8.252;2024-02-15T13:47:47;21.30;68.70
45843;DHT22;31563;51.744;8.252;2024-02-15T13:50:15;21.50;68.20
45843;DHT22;31563;51.744;8.252;2024-02-15T13:52:44;21.70;67.40
45843;DHT22;31563;51.744;8.252;2024-02-15T13:55:13;21.90;66.60
45843;DHT22;31563;51.744;8.252;2024-02-15T13:57:42;21.90;66.50
45843;DHT22;31563;51.744;8.252;2024-02-15T14:00:12;22.20;66.20
45843;DHT22;31563;51.744;8.252;2024-02-15T14:02:43;22.40;65.40
45843;DHT22;31563;51.744;8.252;2024-02-15T14:05:12;22.20;65.50
45843;DHT22;31563;51.744;8.252;2024-02-15T14:07:40;22.20;66.50
45843;DHT22;31563;51.744;8.252;2024-02-15T14:10:09;22.10;66.10
45843;DHT22;31563;51.744;8.252;2024-02-15T14:12:39;22.10;66.40
45843;DHT22;31563;51.744;8.252;2024-02-15T14:15:07;22.00;66.50
45843;DHT22;31563;51.744;8.252;2024-02-15T14:17:36;21.90;66.80
45843;DHT22;31563;51.744;8.252;2024-02-15T14:20:07;21.80;67.20
45843;DHT22;31563;51.744;8.252;2024-02-15T14:22:40;21.70;67.50
45843;DHT22;31563;51.744;8.252;2024-02-15T14:25:08;21.70;67.80
45843;DHT22;31563;51.744;8.252;2024-02-15T14:27:38;21.70;68.00
45843;DHT22;31563;51.744;8.252;2024-02-15T14:30:08;21.60;68.80
45843;DHT22;31563;51.744;8.252;2024-02-15T14:32:53;21.50;68.50
45843;DHT22;31563;51.744;8.252;2024-02-15T14:35:33;21.50;68.70
45843;DHT22;31563;51.744;8.252;2024-02-15T14:38:03;21.40;68.40
45843;DHT22;31563;51.744;8.252;2024-02-15T14:40:33;21.40;66.70
45843;DHT22;31563;51.744;8.252;2024-02-15T14:43:05;21.30;66.00
45843;DHT22;31563;51.744;8.252;2024-02-15T14:45:35;21.20;65.50
45843;DHT22;31563;51.744;8.252;2024-02-15T14:48:04;21.10;65.80
45843;DHT22;31563;51.744;8.252;2024-02-15T14:50:34;21.00;66.20
45843;DHT22;31563;51.744;8.252;2024-02-15T14:53:02;21.00;66.50
45843;DHT22;31563;51.744;8.252;2024-02-15T14:55:31;21.00;66.80
45843;DHT22;31563;51.744;8.252;2024-02-15T14:58:00;21.00;66.80
45843;DHT22;31563;51.744;8.252;2024-02-15T15:00:30;21.00;66.90
45843;DHT22;31563;51.744;8.252;2024-02-15T15:03:02;20.90;67.10
45843;DHT22;31563;51.744;8.252;2024-02-15T15:05:31;20.90;66.80
45843;DHT22;31563;51.744;8.252;2024-02-15T15:08:33;20.90;67.10
45843;DHT22;31563;51.744;8.252;2024-02-15T15:11:18;20.80;67.20
45843;DHT22;31563;51.744;8.252;2024-02-15T15:14:04;20.80;67.70
45843;DHT22;31563;51.744;8.252;2024-02-15T15:16:33;20.80;67.80
45843;DHT22;31563;51.744;8.252;2024-02-15T15:19:01;20.80;67.90
45843;DHT22;31563;51.744;8.252;2024-02-15T15:21:30;20.70;68.00
45843;DHT22;31563;51.744;8.252;2024-02-15T15:24:00;20.70;68.20
45843;DHT22;31563;51.744;8.252;2024-02-15T15:26:28;20.70;68.30
45843;DHT22;31563;51.744;8.252;2024-02-15T15:28:58;20.70;68.60
45843;DHT22;31563;51.744;8.252;2024-02-15T15:31:27;20.60;68.90
45843;DHT22;31563;51.744;8.252;2024-02-15T15:33:56;20.50;69.10
45843;DHT22;31563;51.744;8.252;2024-02-15T15:36:25;20.50;69.40
45843;DHT22;31563;51.744;8.252;2024-02-15T15:38:53;20.50;69.50
45843;DHT22;31563;51.744;8.252;2024-02-15T15:41:22;20.50;69.50
45843;DHT22;31563;51.744;8.252;2024-02-15T15:43:51;20.40;69.60
45843;DHT22;31563;51.744;8.252;2024-02-15T15:46:20;20.40;69.90
45843;DHT22;31563;51.744;8.252;2024-02-15T15:48:48;20.40;70.00
45843;DHT22;31563;51.744;8.252;2024-02-15T15:51:16;20.30;70.20
45843;DHT22;31563;51.744;8.252;2024-02-15T15:53:44;20.30;70.30